Time;durP1;ratioP1;P1;durP2;ratioP2;P2;SDS_P1;SDS_P2;PMS_P1;PMS_P2;Temp;Humidity;BMP_temperature;BMP_pressure;BME280_temperature;BME280_humidity;BME280_pressure;Samples;Min_cycle;Max_cycle;Signal;HPM_P1;HPM_P2
2022/05/13 00:00:43;;;;;;;2.67;1.17;;;15.00;99.90;;;;;;6658124;89;20192;-77
2022/05/13 00:10:44;;;;;;;3.15;1.20;;;14.80;99.90;;;;;;6650439;88;20204;-77
2022/05/13 00:20:45;;;;;;;4.75;1.30;;;14.60;99.90;;;;;;6649904;88;20331;-77
2022/05/13 00:30:48;;;;;;;3.75;1.30;;;14.50;99.90;;;;;;6649219;88;20376;-77
2022/05/13 00:40:48;;;;;;;4.68;1.33;;;14.30;99.90;;;;;;6650386;89;20184;-76
2022/05/13 00:50:49;;;;;;;5.32;1.48;;;14.20;99.90;;;;;;6653687;88;20211;-77
2022/05/13 01:00:50;;;;;;;5.85;1.40;;;14.00;99.90;;;;;;6659430;89;20620;-77
2022/05/13 01:10:51;;;;;;;6.20;1.33;;;13.90;99.90;;;;;;6667683;89;20670;-76
2022/05/13 01:20:52;;;;;;;4.20;1.40;;;13.90;99.90;;;;;;6657628;89;20574;-76
2022/05/13 01:30:56;;;;;;;5.47;1.50;;;13.80;99.90;;;;;;6645093;89;20268;-77
2022/05/13 01:40:57;;;;;;;4.20;1.35;;;13.60;99.90;;;;;;6647339;89;20208;-76
2022/05/13 01:50:58;;;;;;;6.12;1.42;;;13.50;99.90;;;;;;6659592;89;20624;-77
2022/05/13 02:00:59;;;;;;;5.93;1.65;;;13.40;99.90;;;;;;6666094;89;20199;-77
2022/05/13 02:11:00;;;;;;;3.60;1.40;;;13.30;99.90;;;;;;6649093;89;20196;-77
2022/05/13 02:21:01;;;;;;;5.50;1.50;;;13.20;99.90;;;;;;6649337;89;20211;-77
2022/05/13 02:31:02;;;;;;;4.63;1.30;;;13.10;99.90;;;;;;6663198;89;21041;-77
2022/05/13 02:41:12;;;;;;;4.32;1.27;;;13.00;99.90;;;;;;6663322;89;20512;-77
2022/05/13 02:51:14;;;;;;;3.50;0.90;;;13.00;99.90;;;;;;6651205;88;20212;-76
2022/05/13 03:01:17;;;;;;;5.40;0.93;;;13.10;99.90;;;;;;6664093;89;20202;-76
2022/05/13 03:11:20;;;;;;;6.12;1.00;;;13.20;99.90;;;;;;6671462;89;20227;-77
2022/05/13 03:21:22;;;;;;;4.87;0.98;;;13.20;99.90;;;;;;6656322;89;20623;-77
2022/05/13 03:31:23;;;;;;;4.68;1.10;;;13.10;99.90;;;;;;6661194;89;20217;-76
2022/05/13 03:41:23;;;;;;;3.53;1.00;;;13.20;99.90;;;;;;6666917;89;20496;-77
2022/05/13 03:51:24;;;;;;;5.00;1.00;;;13.30;99.90;;;;;;6670035;89;20201;-78
2022/05/13 04:01:24;;;;;;;4.62;1.00;;;13.10;99.90;;;;;;6655419;89;20193;-77
2022/05/13 04:11:36;;;;;;;5.22;1.10;;;12.90;99.90;;;;;;6648959;89;20200;-76
2022/05/13 04:21:39;;;;;;;5.70;0.95;;;12.60;99.90;;;;;;6651478;89;20191;-78
2022/05/13 04:31:41;;;;;;;5.18;0.90;;;12.50;99.90;;;;;;6671447;89;20786;-77
2022/05/13 04:52:01;;;;;;;4.93;1.20;;;12.40;99.90;;;;;;6657360;89;20180;-78
2022/05/13 05:02:02;;;;;;;2.65;0.93;;;12.30;99.90;;;;;;6650260;89;20201;-78
2022/05/13 05:12:03;;;;;;;6.93;1.08;;;12.40;99.90;;;;;;6650788;89;20225;-78
2022/05/13 05:22:05;;;;;;;4.37;1.10;;;12.50;99.90;;;;;;6649757;89;20313;-78
2022/05/13 05:32:06;;;;;;;4.90;1.15;;;12.50;99.90;;;;;;6652520;89;20263;-78
2022/05/13 05:42:08;;;;;;;7.72;1.40;;;12.60;99.90;;;;;;6648551;89;20253;-78
2022/05/13 05:52:10;;;;;;;9.90;1.52;;;12.90;99.90;;;;;;6653027;89;20656;-78
2022/05/13 06:02:11;;;;;;;6.47;1.50;;;13.10;99.90;;;;;;6680047;89;20191;-78
2022/05/13 06:12:13;;;;;;;7.28;1.70;;;13.70;99.90;;;;;;6679475;89;20183;-79
2022/05/13 06:22:13;;;;;;;7.07;1.50;;;13.90;99.90;;;;;;6661749;89;20232;-82
2022/05/13 06:32:14;;;;;;;4.78;1.30;;;14.10;99.90;;;;;;6678123;89;20238;-79
2022/05/13 06:42:16;;;;;;;9.10;1.35;;;14.50;99.90;;;;;;6674931;89;20375;-78
2022/05/13 06:52:38;;;;;;;4.70;1.30;;;14.50;99.90;;;;;;6677476;78;20199;-80
2022/05/13 07:02:39;;;;;;;6.68;1.10;;;15.30;99.90;;;;;;6675513;89;20237;-81
2022/05/13 07:12:40;;;;;;;3.83;1.35;;;15.50;99.90;;;;;;6658869;88;20201;-83
2022/05/13 07:22:40;;;;;;;6.15;1.00;;;15.70;99.90;;;;;;6694866;89;20214;-82
2022/05/13 07:32:41;;;;;;;4.00;1.10;;;16.40;99.90;;;;;;6696439;89;20191;-84
2022/05/13 07:42:41;;;;;;;6.82;1.00;;;16.60;99.90;;;;;;6688819;88;20260;-85
2022/05/13 08:13:48;;;;;;;2.15;0.80;;;17.50;97.40;;;;;;6718243;88;20206;-86
2022/05/13 08:23:49;;;;;;;6.78;0.93;;;18.00;96.60;;;;;;6716820;88;20207;-86
2022/05/13 08:33:50;;;;;;;4.47;1.00;;;17.90;96.80;;;;;;6697309;88;21032;-84
2022/05/13 08:43:56;;;;;;;3.37;0.73;;;17.60;95.50;;;;;;6686549;88;20207;-84
2022/05/13 08:54:09;;;;;;;4.12;0.98;;;17.70;94.50;;;;;;6695935;88;20309;-82
2022/05/13 09:04:16;;;;;;;5.22;0.80;;;18.70;93.30;;;;;;6661762;89;20154;-84
2022/05/13 09:14:57;;;;;;;2.65;0.85;;;18.90;90.00;;;;;;6670139;89;20187;-84
2022/05/13 09:24:57;;;;;;;6.82;0.80;;;19.10;89.50;;;;;;6665917;88;20164;-82
2022/05/13 09:35:23;;;;;;;6.35;0.80;;;18.80;89.10;;;;;;6714493;88;20309;-83
2022/05/13 09:45:27;;;;;;;5.35;0.75;;;19.90;85.60;;;;;;6697632;89;20256;-85
2022/05/13 09:55:49;;;;;;;3.28;0.60;;;20.30;82.80;;;;;;6749593;77;20149;-85
2022/05/13 10:05:53;;;;;;;4.10;0.77;;;20.40;83.70;;;;;;6660472;88;20157;-84
2022/05/13 10:15:55;;;;;;;2.40;0.60;;;22.20;80.20;;;;;;6645073;89;20167;-84
2022/05/13 10:26:03;;;;;;;1.90;0.50;;;21.30;79.20;;;;;;6676310;88;20913;-84
2022/05/13 10:36:34;;;;;;;4.05;0.70;;;20.90;79.10;;;;;;6681311;88;20193;-83
2022/05/13 10:46:45;;;;;;;3.00;0.80;;;21.00;80.60;;;;;;6680637;88;20358;-82
2022/05/13 10:57:04;;;;;;;2.53;0.80;;;21.40;80.30;;;;;;6676889;88;20355;-79
2022/05/13 11:07:25;;;;;;;3.45;0.70;;;21.50;79.10;;;;;;6660104;89;20214;-83
2022/05/13 11:17:39;;;;;;;3.75;1.08;;;21.80;79.20;;;;;;6660713;88;20153;-81
2022/05/13 11:27:43;;;;;;;4.65;0.98;;;21.60;80.20;;;;;;6659800;88;20209;-80
2022/05/13 11:37:46;;;;;;;5.73;1.00;;;22.10;79.90;;;;;;6677344;88;20180;-81
2022/05/13 11:48:10;;;;;;;4.10;1.00;;;21.80;80.00;;;;;;6675483;88;20184;-82
2022/05/13 11:58:46;;;;;;;3.17;1.00;;;22.30;80.20;;;;;;6671815;89;21550;-81
2022/05/13 12:08:54;;;;;;;3.95;1.00;;;22.50;79.00;;;;;;6670385;89;22086;-82
2022/05/13 12:19:23;;;;;;;3.15;0.90;;;23.10;79.00;;;;;;6685365;89;20185;-81
2022/05/13 12:30:00;;;;;;;2.28;0.75;;;22.60;77.60;;;;;;6682445;89;20218;-82
2022/05/13 12:40:01;;;;;;;2.83;0.80;;;22.50;78.30;;;;;;6685592;89;20199;-80
2022/05/13 12:50:42;;;;;;;4.70;0.80;;;23.40;76.40;;;;;;6678052;77;20173;-79
2022/05/13 13:00:47;;;;;;;4.47;0.80;;;24.00;75.90;;;;;;6648563;89;20209;-78
2022/05/13 13:11:00;;;;;;;3.40;0.70;;;24.00;74.30;;;;;;6652632;89;20374;-78
2022/05/13 13:21:07;;;;;;;3.60;0.93;;;24.80;73.30;;;;;;6680526;88;20257;-78
2022/05/13 13:31:14;;;;;;;2.83;0.70;;;23.70;74.80;;;;;;6652302;88;20738;-77
2022/05/13 13:41:32;;;;;;;3.17;0.93;;;23.40;75.10;;;;;;6656226;89;20219;-77
2022/05/13 13:51:36;;;;;;;3.72;0.98;;;23.80;74.30;;;;;;6651269;88;20323;-78
2022/05/13 14:01:45;;;;;;;4.12;0.80;;;24.10;73.50;;;;;;6657528;89;20292;-78
2022/05/13 14:11:48;;;;;;;2.92;1.12;;;24.30;72.70;;;;;;6665057;88;20315;-79
2022/05/13 14:21:59;;;;;;;4.10;1.23;;;25.10;71.20;;;;;;6654493;89;20288;-79
2022/05/13 14:32:08;;;;;;;5.82;0.95;;;24.60;72.40;;;;;;6656054;88;20192;-80
2022/05/13 14:42:33;;;;;;;4.15;0.90;;;25.00;71.80;;;;;;6674293;88;20183;-78
2022/05/13 14:52:39;;;;;;;4.00;1.05;;;23.90;72.30;;;;;;6664059;88;20334;-78
2022/05/13 15:02:45;;;;;;;4.20;0.90;;;24.10;72.30;;;;;;6653603;88;20210;-78
2022/05/13 15:12:46;;;;;;;3.42;0.80;;;24.60;72.70;;;;;;6667526;88;20188;-78
2022/05/13 15:22:48;;;;;;;2.83;0.70;;;23.90;73.90;;;;;;6651284;88;20286;-78
2022/05/13 15:32:50;;;;;;;4.28;0.98;;;24.30;73.10;;;;;;6655919;88;20312;-79
2022/05/13 15:42:51;;;;;;;3.25;1.12;;;24.20;73.40;;;;;;6657374;88;20240;-78
2022/05/13 15:52:51;;;;;;;3.55;1.02;;;23.70;73.40;;;;;;6656024;88;20204;-78
2022/05/13 16:02:55;;;;;;;4.87;1.10;;;24.10;73.10;;;;;;6652348;88;20199;-78
2022/05/13 16:13:02;;;;;;;4.45;0.95;;;24.10;73.10;;;;;;6658854;88;20645;-77
2022/05/13 16:23:03;;;;;;;4.45;1.15;;;23.90;73.10;;;;;;6651409;88;20672;-78
2022/05/13 16:33:04;;;;;;;3.45;1.00;;;23.40;73.30;;;;;;6650194;89;20231;-79
2022/05/13 16:43:06;;;;;;;2.83;1.00;;;23.60;73.20;;;;;;6650414;88;20184;-79
2022/05/13 16:53:07;;;;;;;5.20;1.10;;;23.40;74.00;;;;;;6651534;89;20196;-78
2022/05/13 17:03:08;;;;;;;5.30;1.10;;;23.30;73.90;;;;;;6650627;89;20258;-78
2022/05/13 17:23:27;;;;;;;6.57;1.23;;;23.50;74.90;;;;;;6654546;88;20217;-79
2022/05/13 17:33:28;;;;;;;4.37;1.30;;;23.90;74.20;;;;;;6677265;88;20857;-79
2022/05/13 17:43:29;;;;;;;3.70;0.82;;;24.70;73.20;;;;;;6656571;88;20538;-78
2022/05/13 17:53:30;;;;;;;5.12;1.10;;;24.20;73.30;;;;;;6659901;88;20225;-78
2022/05/13 18:03:31;;;;;;;4.18;1.00;;;24.00;74.80;;;;;;6656956;88;20197;-79
2022/05/13 18:13:34;;;;;;;5.35;1.02;;;24.50;73.70;;;;;;6660688;89;20180;-78
2022/05/13 18:23:36;;;;;;;7.03;1.35;;;23.10;76.00;;;;;;6657143;89;20225;-77
2022/05/13 18:33:38;;;;;;;5.50;1.20;;;21.30;80.80;;;;;;6638469;89;20235;-78
2022/05/13 18:54:18;;;;;;;6.90;1.60;;;20.20;84.70;;;;;;6718505;77;20196;-82
2022/05/13 19:04:21;;;;;;;6.03;1.60;;;19.70;86.90;;;;;;6633098;89;20316;-81
2022/05/13 19:14:22;;;;;;;5.32;1.65;;;19.40;88.30;;;;;;6629383;89;20314;-81
2022/05/13 19:24:22;;;;;;;5.00;1.50;;;19.20;89.40;;;;;;6631137;89;20668;-81
2022/05/13 19:34:23;;;;;;;8.85;1.90;;;18.70;90.50;;;;;;6626783;89;20186;-80
2022/05/13 19:44:24;;;;;;;5.40;1.95;;;18.50;91.60;;;;;;6626718;89;20193;-80
2022/05/13 19:54:24;;;;;;;7.03;1.90;;;18.20;92.40;;;;;;6696204;88;20635;-82
2022/05/13 20:04:25;;;;;;;4.93;1.83;;;18.00;93.40;;;;;;6696316;88;20234;-80
2022/05/13 20:14:25;;;;;;;12.50;2.10;;;17.80;94.30;;;;;;6697687;88;20177;-82
2022/05/13 20:24:26;;;;;;;5.30;1.77;;;17.50;96.20;;;;;;6710113;88;20197;-81
2022/05/13 20:34:27;;;;;;;4.93;2.17;;;17.10;98.20;;;;;;6682348;88;20248;-81
2022/05/13 20:44:27;;;;;;;7.12;1.95;;;16.90;99.90;;;;;;6703378;88;20194;-81
2022/05/13 20:54:28;;;;;;;5.75;2.10;;;16.90;99.90;;;;;;6702416;88;20210;-81
2022/05/13 21:04:37;;;;;;;7.77;2.20;;;16.80;99.90;;;;;;6712589;88;20166;-82
2022/05/13 21:14:37;;;;;;;5.68;2.12;;;16.50;99.90;;;;;;6646291;88;20494;-82
2022/05/13 21:24:38;;;;;;;6.50;1.90;;;16.40;99.90;;;;;;6648958;88;20181;-82
2022/05/13 21:44:58;;;;;;;6.40;2.15;;;16.20;99.90;;;;;;6645578;88;20161;-82
2022/05/13 21:54:59;;;;;;;8.65;2.55;;;16.30;99.90;;;;;;6645517;88;20923;-80
2022/05/13 22:05:00;;;;;;;5.85;2.37;;;16.20;99.90;;;;;;6645328;88;20802;-81
2022/05/13 22:15:01;;;;;;;7.00;2.83;;;16.30;99.90;;;;;;6648428;88;20251;-84
2022/05/13 22:25:02;;;;;;;4.40;2.65;;;15.90;99.90;;;;;;6646312;89;20215;-84
2022/05/13 22:35:05;;;;;;;7.65;3.05;;;15.70;99.90;;;;;;6596421;89;20288;-83
2022/05/13 22:45:07;;;;;;;7.40;3.12;;;15.60;99.90;;;;;;6681784;89;20989;-83
2022/05/13 22:55:08;;;;;;;7.00;3.00;;;15.30;99.90;;;;;;6695153;89;20159;-84
2022/05/13 23:05:09;;;;;;;8.50;2.80;;;14.90;99.90;;;;;;6724869;88;20780;-82
2022/05/13 23:15:10;;;;;;;6.23;2.90;;;14.90;99.90;;;;;;6646558;88;20188;-81
2022/05/13 23:25:10;;;;;;;11.68;3.35;;;14.70;99.90;;;;;;6697598;89;21298;-82
2022/05/13 23:35:11;;;;;;;7.28;3.37;;;14.30;99.90;;;;;;6697979;89;20330;-82
2022/05/13 23:45:13;;;;;;;6.43;2.80;;;14.20;99.90;;;;;;6656288;88;20211;-82
